Time;durP1;ratioP1;P1;durP2;ratioP2;P2;SDS_P1;SDS_P2;PMS_P1;PMS_P2;Temp;Humidity;BMP_temperature;BMP_pressure;BME280_temperature;BME280_humidity;BME280_pressure;Samples;Min_cycle;Max_cycle;Signal;HPM_P1;HPM_P2
2023/08/18 00:01:42;;;;;;;3.77;1.87;;;;;;;;;;5026577;28;20451;-79
2023/08/18 00:04:09;;;;;;;3.20;1.47;;;;;;;;;;5026817;28;20456;-79
2023/08/18 00:06:36;;;;;;;5.50;1.67;;;;;;;;;;5028168;28;20487;-80
2023/08/18 00:09:05;;;;;;;4.40;1.70;;;;;;;;;;5026617;28;20463;-79
2023/08/18 00:11:32;;;;;;;3.33;1.60;;;;;;;;;;5031761;28;20439;-79
2023/08/18 00:14:01;;;;;;;3.20;2.03;;;;;;;;;;5030309;28;20451;-79
2023/08/18 00:16:29;;;;;;;7.47;1.43;;;;;;;;;;5032494;28;20455;-79
2023/08/18 00:18:56;;;;;;;4.07;1.90;;;;;;;;;;5033542;28;20463;-79
2023/08/18 00:21:24;;;;;;;3.43;1.77;;;;;;;;;;5032317;28;20478;-78
2023/08/18 00:23:51;;;;;;;15.23;2.70;;;;;;;;;;5030519;28;20514;-78
2023/08/18 00:26:19;;;;;;;4.90;1.77;;;;;;;;;;5032746;28;20483;-79
2023/08/18 00:28:47;;;;;;;2.93;1.60;;;;;;;;;;5030679;28;20486;-80
2023/08/18 00:31:16;;;;;;;4.00;1.57;;;;;;;;;;5031431;28;20530;-79
2023/08/18 00:33:43;;;;;;;4.10;1.80;;;;;;;;;;5029763;28;20459;-78
2023/08/18 00:36:11;;;;;;;3.60;1.90;;;;;;;;;;5031319;28;20613;-77
2023/08/18 00:38:38;;;;;;;3.40;1.70;;;;;;;;;;5030788;28;20454;-78
2023/08/18 00:41:06;;;;;;;2.40;1.50;;;;;;;;;;5033275;28;20459;-79
2023/08/18 00:43:34;;;;;;;5.30;1.70;;;;;;;;;;5031094;28;20451;-79
2023/08/18 00:46:02;;;;;;;3.67;1.90;;;;;;;;;;5027419;28;20534;-77
2023/08/18 00:48:31;;;;;;;3.80;1.63;;;;;;;;;;5027262;28;20455;-77
2023/08/18 00:51:00;;;;;;;3.43;1.90;;;;;;;;;;5029266;28;20490;-78
2023/08/18 00:53:28;;;;;;;4.33;1.70;;;;;;;;;;5027601;28;20455;-78
2023/08/18 00:55:56;;;;;;;3.13;1.40;;;;;;;;;;5026757;28;20462;-78
2023/08/18 00:58:24;;;;;;;4.53;1.83;;;;;;;;;;5029038;28;20451;-78
2023/08/18 01:00:51;;;;;;;4.93;1.60;;;;;;;;;;5028929;28;20447;-78
2023/08/18 01:03:20;;;;;;;3.50;1.50;;;;;;;;;;5030097;28;20451;-77
2023/08/18 01:05:49;;;;;;;3.63;1.90;;;;;;;;;;5026252;28;20455;-78
2023/08/18 01:08:16;;;;;;;8.60;1.57;;;;;;;;;;5027942;28;20483;-78
2023/08/18 01:10:47;;;;;;;3.80;1.70;;;;;;;;;;5027369;28;20462;-78
2023/08/18 01:13:16;;;;;;;4.37;1.63;;;;;;;;;;5028661;28;20456;-79
2023/08/18 01:15:45;;;;;;;4.30;1.63;;;;;;;;;;5030554;28;20466;-79
2023/08/18 01:18:13;;;;;;;4.20;3.10;;;;;;;;;;5029707;28;20554;-79
2023/08/18 01:20:41;;;;;;;4.10;1.70;;;;;;;;;;5029410;28;20447;-79
2023/08/18 01:23:10;;;;;;;7.50;1.90;;;;;;;;;;5028515;28;20503;-79
2023/08/18 01:25:38;;;;;;;4.70;1.73;;;;;;;;;;5028780;28;20507;-79
2023/08/18 01:28:06;;;;;;;6.20;1.70;;;;;;;;;;5027380;28;20491;-79
2023/08/18 01:30:36;;;;;;;5.63;1.50;;;;;;;;;;5029719;28;20465;-79
2023/08/18 01:33:07;;;;;;;4.60;1.60;;;;;;;;;;5030052;28;20439;-79
2023/08/18 01:35:34;;;;;;;2.77;1.40;;;;;;;;;;5031079;28;20478;-79
2023/08/18 01:38:03;;;;;;;2.57;1.97;;;;;;;;;;5030549;28;20514;-79
2023/08/18 01:40:32;;;;;;;5.10;2.37;;;;;;;;;;5029956;28;20486;-79
2023/08/18 01:43:00;;;;;;;5.57;1.93;;;;;;;;;;5031520;28;20466;-79
2023/08/18 01:45:28;;;;;;;2.40;1.40;;;;;;;;;;5029924;28;20503;-79
2023/08/18 01:47:55;;;;;;;4.43;2.20;;;;;;;;;;5031740;28;20495;-79
2023/08/18 01:50:23;;;;;;;4.40;2.20;;;;;;;;;;5029681;28;20456;-79
2023/08/18 01:52:50;;;;;;;8.40;3.90;;;;;;;;;;5029365;28;20463;-80
2023/08/18 01:55:18;;;;;;;3.30;1.60;;;;;;;;;;5028472;28;20469;-79
2023/08/18 01:57:47;;;;;;;7.70;2.93;;;;;;;;;;5028904;28;20451;-79
2023/08/18 02:00:17;;;;;;;4.10;1.90;;;;;;;;;;5028420;28;21025;-79
2023/08/18 02:02:44;;;;;;;5.23;2.40;;;;;;;;;;5028526;28;20443;-79
2023/08/18 02:05:12;;;;;;;2.63;1.63;;;;;;;;;;5029125;28;20522;-78
2023/08/18 02:07:39;;;;;;;3.20;1.70;;;;;;;;;;5027776;28;20522;-79
2023/08/18 02:10:07;;;;;;;3.20;1.50;;;;;;;;;;5028737;28;20490;-78
2023/08/18 02:12:35;;;;;;;5.70;1.83;;;;;;;;;;5028158;28;20494;-79
2023/08/18 02:15:04;;;;;;;4.00;1.83;;;;;;;;;;5026870;28;20463;-79
2023/08/18 02:17:31;;;;;;;2.47;1.87;;;;;;;;;;5029206;28;20439;-79
2023/08/18 02:19:59;;;;;;;4.47;2.00;;;;;;;;;;5028584;28;20428;-79
2023/08/18 02:22:27;;;;;;;3.27;2.10;;;;;;;;;;5030583;28;20910;-78
2023/08/18 02:24:54;;;;;;;4.77;1.83;;;;;;;;;;5027003;28;20475;-79
2023/08/18 02:27:22;;;;;;;5.03;2.13;;;;;;;;;;5027081;28;20491;-79
2023/08/18 02:29:49;;;;;;;3.30;2.10;;;;;;;;;;5027756;28;20459;-79
2023/08/18 02:32:18;;;;;;;4.40;2.10;;;;;;;;;;5028698;28;20451;-78
2023/08/18 02:34:46;;;;;;;4.70;1.93;;;;;;;;;;5024951;28;20463;-77
2023/08/18 02:37:14;;;;;;;4.10;1.50;;;;;;;;;;5026282;28;20452;-78
2023/08/18 02:39:41;;;;;;;3.23;1.80;;;;;;;;;;5028796;28;20450;-78
2023/08/18 02:42:09;;;;;;;5.30;1.80;;;;;;;;;;5027479;28;20459;-79
2023/08/18 02:44:36;;;;;;;4.87;2.23;;;;;;;;;;5028954;28;20483;-79
2023/08/18 02:47:04;;;;;;;3.50;2.10;;;;;;;;;;5029596;28;20493;-79
2023/08/18 02:49:33;;;;;;;3.10;1.67;;;;;;;;;;5024982;28;20750;-77
2023/08/18 02:52:01;;;;;;;7.50;2.57;;;;;;;;;;5027087;28;20522;-78
2023/08/18 02:54:28;;;;;;;6.80;2.30;;;;;;;;;;5024224;28;20802;-77
2023/08/18 02:56:57;;;;;;;5.70;1.90;;;;;;;;;;5024474;28;20454;-77
2023/08/18 02:59:25;;;;;;;3.20;2.17;;;;;;;;;;5020821;28;20455;-77
2023/08/18 03:01:52;;;;;;;4.07;2.30;;;;;;;;;;5023024;28;20435;-79
2023/08/18 03:04:20;;;;;;;3.63;2.30;;;;;;;;;;5026754;28;20443;-79
2023/08/18 03:06:50;;;;;;;4.00;2.10;;;;;;;;;;5029121;28;20469;-79
2023/08/18 03:09:17;;;;;;;3.37;1.97;;;;;;;;;;5028798;28;20461;-78
2023/08/18 03:11:45;;;;;;;2.93;1.70;;;;;;;;;;5028004;28;20530;-78
2023/08/18 03:14:12;;;;;;;4.90;2.10;;;;;;;;;;5024569;28;20498;-81
2023/08/18 03:16:42;;;;;;;6.77;2.13;;;;;;;;;;5031360;28;20463;-80
2023/08/18 03:19:10;;;;;;;4.17;1.60;;;;;;;;;;5030546;28;20459;-78
2023/08/18 03:21:37;;;;;;;5.70;2.53;;;;;;;;;;5032475;28;20451;-79
2023/08/18 03:24:06;;;;;;;3.60;2.47;;;;;;;;;;5030172;28;20952;-78
2023/08/18 03:26:34;;;;;;;7.73;2.60;;;;;;;;;;5033376;28;20439;-78
2023/08/18 03:29:02;;;;;;;4.10;2.23;;;;;;;;;;5029650;28;20529;-79
2023/08/18 03:31:29;;;;;;;16.73;2.87;;;;;;;;;;5032911;28;20469;-77
2023/08/18 03:33:56;;;;;;;6.13;2.83;;;;;;;;;;5027861;28;20626;-79
2023/08/18 03:36:24;;;;;;;4.50;2.67;;;;;;;;;;5029644;28;20547;-79
2023/08/18 03:38:52;;;;;;;3.80;2.47;;;;;;;;;;5028126;28;20666;-78
2023/08/18 03:41:21;;;;;;;6.13;2.43;;;;;;;;;;5028958;28;20451;-78
2023/08/18 03:43:49;;;;;;;6.40;2.53;;;;;;;;;;5030376;28;20451;-78
2023/08/18 03:46:22;;;;;;;9.17;3.00;;;;;;;;;;5031663;28;20483;-79
2023/08/18 03:48:50;;;;;;;7.13;2.40;;;;;;;;;;5032281;28;20487;-79
2023/08/18 03:51:18;;;;;;;2.90;1.83;;;;;;;;;;5031258;28;20494;-79
2023/08/18 03:53:45;;;;;;;2.97;2.17;;;;;;;;;;5030121;28;20450;-79
2023/08/18 03:56:13;;;;;;;3.10;2.23;;;;;;;;;;5029941;28;20466;-78
2023/08/18 03:58:52;;;;;;;6.40;2.30;;;;;;;;;;5031369;28;20463;-79
2023/08/18 04:01:20;;;;;;;3.80;2.20;;;;;;;;;;5032558;28;20447;-79
2023/08/18 04:03:47;;;;;;;3.63;2.40;;;;;;;;;;5029194;28;20451;-80
2023/08/18 04:06:17;;;;;;;6.10;2.27;;;;;;;;;;5033304;28;20447;-80
2023/08/18 04:08:46;;;;;;;4.33;2.40;;;;;;;;;;5026773;28;20482;-78
2023/08/18 04:11:13;;;;;;;5.07;3.27;;;;;;;;;;5029237;28;20475;-80
2023/08/18 04:13:43;;;;;;;6.10;2.40;;;;;;;;;;5028240;28;20432;-79
2023/08/18 04:16:11;;;;;;;3.27;2.00;;;;;;;;;;5031981;28;20802;-79
2023/08/18 04:18:39;;;;;;;3.97;2.33;;;;;;;;;;5030615;28;20449;-79
2023/08/18 04:21:06;;;;;;;5.90;2.93;;;;;;;;;;5030975;28;20499;-79
2023/08/18 04:23:34;;;;;;;4.37;2.67;;;;;;;;;;5030503;28;20455;-78
2023/08/18 04:26:06;;;;;;;6.57;2.50;;;;;;;;;;5026852;28;20887;-79
2023/08/18 04:28:34;;;;;;;4.60;2.70;;;;;;;;;;5025967;28;20489;-78
2023/08/18 04:31:03;;;;;;;4.90;3.27;;;;;;;;;;5027934;28;20461;-78
2023/08/18 04:33:31;;;;;;;5.33;3.20;;;;;;;;;;5024535;28;20459;-79
2023/08/18 04:35:58;;;;;;;3.40;2.07;;;;;;;;;;5028399;28;20459;-79
2023/08/18 04:38:26;;;;;;;4.03;2.43;;;;;;;;;;5026748;28;20451;-78
2023/08/18 04:41:00;;;;;;;6.93;4.77;;;;;;;;;;5028739;28;20909;-79
2023/08/18 04:43:28;;;;;;;5.47;2.80;;;;;;;;;;5030165;28;20462;-79
2023/08/18 04:45:55;;;;;;;5.73;2.27;;;;;;;;;;5032642;28;20483;-79
2023/08/18 04:48:25;;;;;;;4.10;3.10;;;;;;;;;;5032314;28;20478;-79
2023/08/18 04:50:52;;;;;;;4.00;2.80;;;;;;;;;;5027737;28;20463;-79
2023/08/18 04:53:20;;;;;;;6.73;3.00;;;;;;;;;;5025547;28;20459;-78
2023/08/18 04:55:48;;;;;;;6.33;2.97;;;;;;;;;;5024286;28;20545;-78
2023/08/18 04:58:15;;;;;;;5.43;2.67;;;;;;;;;;5026879;28;20451;-78
2023/08/18 05:00:44;;;;;;;5.50;2.57;;;;;;;;;;5025347;28;21074;-79
2023/08/18 05:03:12;;;;;;;4.53;3.10;;;;;;;;;;5023350;28;20458;-79
2023/08/18 05:06:00;;;;;;;8.37;3.00;;;;;;;;;;5028394;28;20452;-79
2023/08/18 05:08:28;;;;;;;4.43;3.33;;;;;;;;;;5026914;28;20487;-78
2023/08/18 05:10:58;;;;;;;5.10;3.37;;;;;;;;;;5029340;28;20466;-79
2023/08/18 05:13:26;;;;;;;5.90;3.43;;;;;;;;;;5027040;28;20481;-79
2023/08/18 05:15:53;;;;;;;5.20;3.30;;;;;;;;;;5023861;28;20447;-79
2023/08/18 05:18:26;;;;;;;4.47;2.53;;;;;;;;;;5023205;28;20451;-79
2023/08/18 05:20:54;;;;;;;8.27;3.67;;;;;;;;;;5020367;28;20451;-78
2023/08/18 05:23:22;;;;;;;6.07;3.40;;;;;;;;;;5019657;28;20447;-79
2023/08/18 05:25:53;;;;;;;5.60;2.90;;;;;;;;;;5020295;28;20517;-78
2023/08/18 05:28:21;;;;;;;6.40;4.53;;;;;;;;;;5026720;28;20471;-79
2023/08/18 05:30:49;;;;;;;11.60;3.67;;;;;;;;;;5025851;28;20733;-80
2023/08/18 05:33:16;;;;;;;5.50;3.20;;;;;;;;;;5021351;28;20524;-78
2023/08/18 05:35:45;;;;;;;4.80;3.70;;;;;;;;;;5023028;28;20451;-79
2023/08/18 05:38:14;;;;;;;5.23;3.60;;;;;;;;;;5024137;28;20467;-78
2023/08/18 05:40:42;;;;;;;6.60;3.50;;;;;;;;;;5021710;28;20673;-78
2023/08/18 05:43:10;;;;;;;5.10;3.50;;;;;;;;;;5025126;28;20466;-79
2023/08/18 05:45:38;;;;;;;9.73;3.83;;;;;;;;;;5020260;28;20489;-80
2023/08/18 05:48:06;;;;;;;7.90;4.50;;;;;;;;;;5019501;28;20562;-78
2023/08/18 05:50:33;;;;;;;5.47;4.10;;;;;;;;;;5018912;28;20482;-79
2023/08/18 05:53:02;;;;;;;6.30;4.40;;;;;;;;;;5020429;28;20490;-80
2023/08/18 05:55:36;;;;;;;9.73;4.93;;;;;;;;;;5019221;28;20520;-80
2023/08/18 05:58:09;;;;;;;7.40;4.80;;;;;;;;;;5022185;28;20474;-78
2023/08/18 06:00:45;;;;;;;6.27;4.03;;;;;;;;;;5021548;28;20861;-78
2023/08/18 06:03:12;;;;;;;8.70;5.17;;;;;;;;;;5017204;28;20459;-78
2023/08/18 06:05:40;;;;;;;8.00;4.70;;;;;;;;;;5021862;28;20466;-79
2023/08/18 06:08:08;;;;;;;13.97;5.67;;;;;;;;;;5021185;28;21183;-79
2023/08/18 06:10:37;;;;;;;12.10;5.50;;;;;;;;;;5023953;28;20438;-79
2023/08/18 06:13:05;;;;;;;12.13;5.70;;;;;;;;;;5021763;28;20477;-79
2023/08/18 06:15:32;;;;;;;14.80;5.70;;;;;;;;;;5022455;28;20490;-79
2023/08/18 06:18:00;;;;;;;10.23;5.93;;;;;;;;;;5019786;28;20517;-79
2023/08/18 06:20:27;;;;;;;9.67;6.00;;;;;;;;;;5018938;28;20712;-77
2023/08/18 06:22:56;;;;;;;9.20;5.50;;;;;;;;;;5017879;28;20518;-77
2023/08/18 06:25:25;;;;;;;8.80;6.00;;;;;;;;;;5015259;28;20452;-77
2023/08/18 06:27:54;;;;;;;10.60;5.87;;;;;;;;;;5016930;28;20527;-78
2023/08/18 06:30:23;;;;;;;9.07;5.53;;;;;;;;;;5019430;28;20462;-78
2023/08/18 06:32:51;;;;;;;9.80;5.70;;;;;;;;;;5019308;28;20443;-79
2023/08/18 06:35:19;;;;;;;15.70;6.20;;;;;;;;;;5018175;28;20447;-78
2023/08/18 06:37:46;;;;;;;11.20;5.33;;;;;;;;;;5019085;28;20767;-79
2023/08/18 06:40:17;;;;;;;9.93;5.77;;;;;;;;;;5019516;28;20462;-78
2023/08/18 06:42:44;;;;;;;12.73;6.63;;;;;;;;;;5019468;28;20687;-80
2023/08/18 06:45:16;;;;;;;12.57;7.70;;;;;;;;;;5021948;28;20522;-79
2023/08/18 06:47:44;;;;;;;9.90;6.63;;;;;;;;;;5018062;28;20482;-79
2023/08/18 06:50:15;;;;;;;12.53;6.50;;;;;;;;;;5024100;28;20991;-79
2023/08/18 06:52:44;;;;;;;8.83;5.90;;;;;;;;;;5026275;28;20922;-78
2023/08/18 06:55:14;;;;;;;10.93;6.83;;;;;;;;;;5023917;28;20486;-78
2023/08/18 06:57:42;;;;;;;8.90;7.37;;;;;;;;;;5025178;28;20482;-79
2023/08/18 07:00:18;;;;;;;7.77;6.30;;;;;;;;;;5024603;28;20533;-79
2023/08/18 07:02:46;;;;;;;10.83;7.00;;;;;;;;;;5025550;28;20447;-78
2023/08/18 07:05:13;;;;;;;9.30;7.00;;;;;;;;;;5025323;28;20447;-80
2023/08/18 07:07:41;;;;;;;9.00;7.30;;;;;;;;;;5022441;28;20773;-78
2023/08/18 07:10:09;;;;;;;9.27;5.57;;;;;;;;;;5022534;28;20498;-80
2023/08/18 07:12:37;;;;;;;11.77;6.30;;;;;;;;;;5019881;28;20455;-78
2023/08/18 07:15:05;;;;;;;12.33;5.93;;;;;;;;;;5022279;28;20542;-79
2023/08/18 07:17:35;;;;;;;7.50;6.67;;;;;;;;;;5020998;28;20462;-79
2023/08/18 07:20:10;;;;;;;9.27;7.17;;;;;;;;;;5019042;28;20945;-78
2023/08/18 07:22:39;;;;;;;11.63;6.13;;;;;;;;;;5023856;28;20454;-79
2023/08/18 07:25:09;;;;;;;9.93;6.83;;;;;;;;;;5026192;28;20451;-78
2023/08/18 07:27:37;;;;;;;10.87;7.53;;;;;;;;;;5027416;28;20470;-79
2023/08/18 07:30:09;;;;;;;9.37;6.80;;;;;;;;;;5025293;28;20710;-81
2023/08/18 07:32:38;;;;;;;9.23;7.73;;;;;;;;;;5023322;28;21038;-79
2023/08/18 07:35:08;;;;;;;10.30;6.83;;;;;;;;;;5023982;28;20455;-80
2023/08/18 07:37:36;;;;;;;9.93;7.17;;;;;;;;;;5026234;28;20770;-81
2023/08/18 07:40:09;;;;;;;8.83;6.90;;;;;;;;;;5027250;28;20685;-79
2023/08/18 07:42:40;;;;;;;12.67;8.73;;;;;;;;;;5025982;28;20487;-79
2023/08/18 07:45:08;;;;;;;10.30;7.30;;;;;;;;;;5026803;28;20482;-79
2023/08/18 07:47:37;;;;;;;8.50;7.60;;;;;;;;;;5030273;28;20478;-79
2023/08/18 07:50:10;;;;;;;12.10;8.57;;;;;;;;;;5024109;28;20999;-79
2023/08/18 07:52:42;;;;;;;9.60;8.33;;;;;;;;;;5029525;28;20478;-80
2023/08/18 07:55:11;;;;;;;13.67;10.40;;;;;;;;;;5025553;28;20459;-79
2023/08/18 07:57:38;;;;;;;12.50;9.80;;;;;;;;;;5025505;28;20471;-79
2023/08/18 08:00:17;;;;;;;9.47;7.60;;;;;;;;;;5027014;28;20470;-78
2023/08/18 08:02:45;;;;;;;9.83;7.77;;;;;;;;;;5027586;28;20471;-78
2023/08/18 08:05:16;;;;;;;11.57;7.70;;;;;;;;;;5028856;28;20526;-78
2023/08/18 08:07:45;;;;;;;11.20;8.33;;;;;;;;;;5028060;28;20498;-79
2023/08/18 08:10:20;;;;;;;10.57;8.20;;;;;;;;;;5028872;28;20490;-78
2023/08/18 08:12:49;;;;;;;11.47;7.63;;;;;;;;;;5030553;28;20466;-78
2023/08/18 08:15:17;;;;;;;10.03;8.10;;;;;;;;;;5024592;28;20466;-79
2023/08/18 08:17:45;;;;;;;13.83;7.43;;;;;;;;;;5024489;28;20447;-79
2023/08/18 08:20:17;;;;;;;10.13;7.90;;;;;;;;;;5027028;28;20443;-78
2023/08/18 08:22:46;;;;;;;10.03;7.00;;;;;;;;;;5028313;28;20487;-79
2023/08/18 08:25:14;;;;;;;13.03;8.40;;;;;;;;;;5025928;28;20452;-80
2023/08/18 08:27:41;;;;;;;10.77;7.70;;;;;;;;;;5029081;28;20473;-79
2023/08/18 08:30:11;;;;;;;9.30;7.77;;;;;;;;;;5025631;28;20754;-79
2023/08/18 08:32:38;;;;;;;9.57;7.83;;;;;;;;;;5030227;28;20438;-78
2023/08/18 08:35:06;;;;;;;11.50;9.20;;;;;;;;;;5027185;28;20466;-78
2023/08/18 08:37:36;;;;;;;10.53;9.30;;;;;;;;;;5029826;28;20474;-77
2023/08/18 08:40:10;;;;;;;11.63;7.90;;;;;;;;;;5020717;28;20499;-77
2023/08/18 08:42:38;;;;;;;10.63;7.50;;;;;;;;;;5027386;28;20455;-79
2023/08/18 08:45:09;;;;;;;9.53;7.60;;;;;;;;;;5021929;28;20558;-80
2023/08/18 08:47:38;;;;;;;11.53;7.57;;;;;;;;;;5021561;28;20455;-79
2023/08/18 08:50:08;;;;;;;9.27;7.30;;;;;;;;;;5020934;28;20494;-79
2023/08/18 08:52:41;;;;;;;7.97;6.80;;;;;;;;;;5027600;28;20471;-79
2023/08/18 08:55:09;;;;;;;9.90;7.63;;;;;;;;;;5030140;28;20673;-79
2023/08/18 08:57:36;;;;;;;12.37;10.43;;;;;;;;;;5023576;28;20599;-78
2023/08/18 09:00:11;;;;;;;12.87;10.33;;;;;;;;;;5022988;28;20549;-79
2023/08/18 09:02:40;;;;;;;8.00;7.10;;;;;;;;;;5028890;28;20441;-79
2023/08/18 09:05:08;;;;;;;9.43;8.20;;;;;;;;;;5027096;28;20938;-80
2023/08/18 09:07:36;;;;;;;11.07;8.13;;;;;;;;;;5029709;28;20471;-79
2023/08/18 09:10:10;;;;;;;9.30;7.93;;;;;;;;;;5027226;28;20557;-79
2023/08/18 09:12:38;;;;;;;19.43;8.37;;;;;;;;;;5027155;28;20464;-79
2023/08/18 09:15:09;;;;;;;11.90;9.07;;;;;;;;;;5028119;28;20493;-79
2023/08/18 09:17:37;;;;;;;13.97;8.47;;;;;;;;;;5027033;28;20459;-78
2023/08/18 09:20:08;;;;;;;11.67;7.90;;;;;;;;;;5026276;28;20428;-79
2023/08/18 09:22:36;;;;;;;9.70;7.90;;;;;;;;;;5026121;28;20749;-79
2023/08/18 09:25:04;;;;;;;9.07;8.00;;;;;;;;;;5026313;28;20436;-79
2023/08/18 09:27:37;;;;;;;9.40;7.73;;;;;;;;;;5027407;28;20470;-79
2023/08/18 09:30:09;;;;;;;12.33;7.87;;;;;;;;;;5025652;28;20471;-79
2023/08/18 09:32:37;;;;;;;8.90;8.00;;;;;;;;;;5026498;28;20451;-79
2023/08/18 09:35:05;;;;;;;11.07;8.27;;;;;;;;;;5023787;28;20466;-81
2023/08/18 09:37:33;;;;;;;13.30;9.23;;;;;;;;;;5020966;28;20685;-78
2023/08/18 09:40:07;;;;;;;9.60;8.60;;;;;;;;;;5022484;28;20462;-78
2023/08/18 09:42:37;;;;;;;13.57;7.53;;;;;;;;;;5023792;28;20478;-79
2023/08/18 09:45:08;;;;;;;8.87;7.77;;;;;;;;;;5024781;28;20475;-78
2023/08/18 09:47:40;;;;;;;9.53;8.57;;;;;;;;;;5023851;28;20539;-78
2023/08/18 09:50:08;;;;;;;8.67;7.77;;;;;;;;;;5024688;28;20530;-79
2023/08/18 09:52:36;;;;;;;26.13;20.20;;;;;;;;;;5022024;28;20455;-79
2023/08/18 09:55:11;;;;;;;13.30;9.03;;;;;;;;;;5021837;28;20459;-79
2023/08/18 09:57:45;;;;;;;10.00;7.43;;;;;;;;;;5027004;28;20477;-79
2023/08/18 10:00:19;;;;;;;10.63;7.03;;;;;;;;;;5022615;28;20487;-79
2023/08/18 10:02:48;;;;;;;11.20;7.50;;;;;;;;;;5023737;28;20459;-79
2023/08/18 10:05:16;;;;;;;7.20;6.40;;;;;;;;;;5001846;28;20496;-77
2023/08/18 10:07:45;;;;;;;9.33;7.43;;;;;;;;;;5023615;28;20462;-78
2023/08/18 10:10:20;;;;;;;140.83;105.27;;;;;;;;;;5021694;28;20495;-78
2023/08/18 10:12:56;;;;;;;10.80;9.27;;;;;;;;;;5016087;28;20468;-79
2023/08/18 10:15:30;;;;;;;17.93;14.30;;;;;;;;;;5018272;28;20501;-77
2023/08/18 10:17:58;;;;;;;10.33;8.77;;;;;;;;;;5021922;28;20431;-78
2023/08/18 10:20:28;;;;;;;10.10;9.07;;;;;;;;;;5017941;28;20542;-78
2023/08/18 10:22:56;;;;;;;11.83;10.33;;;;;;;;;;5015896;28;20455;-78
2023/08/18 10:25:28;;;;;;;9.60;8.17;;;;;;;;;;5015972;28;20458;-78
2023/08/18 10:27:58;;;;;;;8.83;7.83;;;;;;;;;;5018727;28;20521;-78
2023/08/18 10:30:29;;;;;;;10.57;9.57;;;;;;;;;;5018892;28;20554;-79
2023/08/18 10:33:03;;;;;;;9.90;9.00;;;;;;;;;;5018073;28;20469;-79
2023/08/18 10:35:38;;;;;;;9.47;8.37;;;;;;;;;;5010947;28;20497;-77
2023/08/18 10:38:07;;;;;;;10.77;7.93;;;;;;;;;;5015973;28;20442;-78
2023/08/18 10:40:38;;;;;;;11.13;8.07;;;;;;;;;;5018752;28;20478;-78
2023/08/18 10:43:10;;;;;;;10.23;8.23;;;;;;;;;;5023578;28;20435;-79
2023/08/18 10:45:37;;;;;;;12.00;9.03;;;;;;;;;;5016735;28;20468;-79
2023/08/18 10:48:05;;;;;;;10.13;9.13;;;;;;;;;;5000664;28;20507;-80
2023/08/18 10:50:33;;;;;;;10.63;9.30;;;;;;;;;;5000358;28;20550;-80
2023/08/18 10:53:03;;;;;;;14.03;9.03;;;;;;;;;;5003465;28;20460;-79
2023/08/18 10:55:31;;;;;;;10.60;9.20;;;;;;;;;;5004406;28;20460;-79
2023/08/18 10:57:59;;;;;;;9.70;8.43;;;;;;;;;;5001497;28;20748;-78
2023/08/18 11:00:32;;;;;;;9.67;8.73;;;;;;;;;;5004982;28;20460;-79
2023/08/18 11:02:59;;;;;;;9.37;8.57;;;;;;;;;;4992942;28;20526;-78
2023/08/18 11:05:27;;;;;;;9.30;8.40;;;;;;;;;;4986837;28;20480;-79
2023/08/18 11:07:54;;;;;;;11.73;10.53;;;;;;;;;;4995589;28;20767;-79
2023/08/18 11:10:30;;;;;;;11.17;10.07;;;;;;;;;;5002084;28;20491;-80
2023/08/18 11:13:03;;;;;;;12.20;9.23;;;;;;;;;;5002159;28;20452;-79
2023/08/18 11:15:32;;;;;;;10.50;8.97;;;;;;;;;;5008733;28;20452;-79
2023/08/18 11:18:00;;;;;;;9.53;8.33;;;;;;;;;;5016368;28;20468;-78
2023/08/18 11:20:28;;;;;;;8.43;7.63;;;;;;;;;;5000723;28;20544;-78
2023/08/18 11:22:57;;;;;;;10.50;8.50;;;;;;;;;;5001209;28;20460;-78
2023/08/18 11:25:26;;;;;;;10.30;6.50;;;;;;;;;;4998361;28;20503;-79
2023/08/18 11:27:59;;;;;;;9.47;6.90;;;;;;;;;;4996553;28;20494;-78
2023/08/18 11:30:28;;;;;;;11.10;7.90;;;;;;;;;;5010065;28;20602;-77
2023/08/18 11:33:01;;;;;;;9.87;7.73;;;;;;;;;;4997685;28;20520;-77
2023/08/18 11:35:30;;;;;;;8.23;6.93;;;;;;;;;;4996715;28;20460;-79
2023/08/18 11:37:58;;;;;;;8.37;7.37;;;;;;;;;;5010185;28;20464;-79
2023/08/18 11:40:26;;;;;;;9.00;8.00;;;;;;;;;;5007855;28;20462;-78
2023/08/18 11:42:57;;;;;;;9.17;8.17;;;;;;;;;;5005541;28;20456;-79
2023/08/18 11:45:26;;;;;;;8.80;7.00;;;;;;;;;;5018142;28;20489;-78
2023/08/18 11:48:03;;;;;;;8.07;7.27;;;;;;;;;;5027083;28;20507;-78
2023/08/18 11:50:33;;;;;;;9.30;8.30;;;;;;;;;;5024533;28;20557;-78
2023/08/18 11:53:16;;;;;;;8.30;7.50;;;;;;;;;;5026402;28;20553;-78
2023/08/18 11:55:45;;;;;;;7.93;7.23;;;;;;;;;;5026697;28;20687;-78
2023/08/18 11:58:14;;;;;;;9.70;8.70;;;;;;;;;;5026181;28;20466;-79
2023/08/18 12:00:43;;;;;;;7.93;7.13;;;;;;;;;;5036503;28;20490;-78
2023/08/18 12:03:28;;;;;;;10.80;6.47;;;;;;;;;;5039747;28;20516;-77
2023/08/18 12:06:00;;;;;;;16.90;15.10;;;;;;;;;;5023266;28;20447;-78
2023/08/18 12:08:30;;;;;;;11.43;8.73;;;;;;;;;;5026533;28;20463;-78
2023/08/18 12:10:59;;;;;;;8.40;7.50;;;;;;;;;;5024750;28;20483;-79
2023/08/18 12:13:30;;;;;;;9.07;7.23;;;;;;;;;;5025671;28;20515;-78
2023/08/18 12:15:57;;;;;;;7.70;7.00;;;;;;;;;;5024757;28;20454;-78
2023/08/18 12:18:28;;;;;;;8.63;7.00;;;;;;;;;;5026114;28;20759;-78
2023/08/18 12:20:55;;;;;;;8.73;7.83;;;;;;;;;;5023823;28;20503;-78
2023/08/18 12:23:24;;;;;;;8.57;7.67;;;;;;;;;;5026953;28;20451;-77
2023/08/18 12:25:52;;;;;;;8.87;8.00;;;;;;;;;;5024982;28;20518;-79
2023/08/18 12:28:22;;;;;;;10.70;7.37;;;;;;;;;;5021726;28;20456;-78
2023/08/18 12:30:49;;;;;;;8.70;7.30;;;;;;;;;;5021789;28;20491;-78
2023/08/18 12:33:17;;;;;;;8.40;7.60;;;;;;;;;;5022290;28;20441;-79
2023/08/18 12:35:46;;;;;;;7.40;6.70;;;;;;;;;;5025856;28;20465;-77
2023/08/18 12:38:13;;;;;;;10.73;9.37;;;;;;;;;;5023409;28;20459;-78
2023/08/18 12:40:41;;;;;;;12.23;8.90;;;;;;;;;;5026192;28;20456;-78
2023/08/18 12:43:10;;;;;;;8.17;7.43;;;;;;;;;;5026727;28;20455;-78
2023/08/18 12:45:37;;;;;;;8.37;6.80;;;;;;;;;;5028721;28;20526;-78
2023/08/18 12:48:05;;;;;;;8.07;6.70;;;;;;;;;;5031920;28;20427;-78
2023/08/18 12:50:33;;;;;;;9.70;8.70;;;;;;;;;;5027055;28;20513;-79
2023/08/18 12:53:07;;;;;;;10.13;7.07;;;;;;;;;;5027588;28;20451;-78
2023/08/18 12:55:35;;;;;;;9.73;8.83;;;;;;;;;;5020849;28;20443;-78
2023/08/18 12:58:03;;;;;;;9.40;8.50;;;;;;;;;;5023782;28;20463;-79
2023/08/18 13:00:31;;;;;;;9.07;7.93;;;;;;;;;;5021959;28;20692;-78
2023/08/18 13:02:59;;;;;;;8.90;7.73;;;;;;;;;;5026885;28;20455;-78
2023/08/18 13:05:26;;;;;;;7.63;6.83;;;;;;;;;;5022611;28;20456;-78
2023/08/18 13:07:54;;;;;;;9.03;8.10;;;;;;;;;;5021231;28;20629;-78
2023/08/18 13:10:23;;;;;;;9.70;8.43;;;;;;;;;;5024391;28;20483;-79
2023/08/18 13:12:51;;;;;;;9.23;8.07;;;;;;;;;;5024577;28;20455;-78
2023/08/18 13:15:19;;;;;;;8.87;7.77;;;;;;;;;;5029528;28;20456;-78
2023/08/18 13:17:47;;;;;;;8.70;7.90;;;;;;;;;;5027277;28;20467;-78
2023/08/18 13:20:17;;;;;;;8.37;7.57;;;;;;;;;;5032845;28;20443;-79
2023/08/18 13:22:46;;;;;;;9.67;8.20;;;;;;;;;;5026790;28;20463;-78
2023/08/18 13:25:15;;;;;;;9.17;8.27;;;;;;;;;;5027095;28;20494;-79
2023/08/18 13:27:50;;;;;;;9.23;8.30;;;;;;;;;;5027504;28;20451;-79
2023/08/18 13:30:25;;;;;;;13.03;9.60;;;;;;;;;;5025443;28;20478;-79
2023/08/18 13:32:53;;;;;;;9.20;8.30;;;;;;;;;;5007926;28;20455;-78
2023/08/18 13:35:21;;;;;;;10.30;8.17;;;;;;;;;;5011447;28;20523;-77
2023/08/18 13:37:51;;;;;;;8.90;8.00;;;;;;;;;;5019752;28;20475;-79
2023/08/18 13:40:18;;;;;;;12.60;9.73;;;;;;;;;;5022465;28;20843;-80
2023/08/18 13:42:49;;;;;;;10.33;8.80;;;;;;;;;;5023153;28;20479;-79
2023/08/18 13:45:21;;;;;;;9.10;8.30;;;;;;;;;;5019124;28;20922;-78
2023/08/18 13:47:48;;;;;;;8.67;7.87;;;;;;;;;;5018696;28;21032;-78
2023/08/18 13:50:19;;;;;;;9.83;8.43;;;;;;;;;;5022324;28;20855;-78
2023/08/18 13:52:47;;;;;;;10.10;8.60;;;;;;;;;;5019753;28;20444;-78
2023/08/18 13:55:15;;;;;;;9.33;7.60;;;;;;;;;;5022988;28;20465;-80
2023/08/18 13:57:45;;;;;;;9.40;8.40;;;;;;;;;;5017309;28;20483;-79
2023/08/18 14:00:18;;;;;;;7.60;6.90;;;;;;;;;;5021516;28;20478;-77
2023/08/18 14:02:45;;;;;;;8.27;7.50;;;;;;;;;;5042197;28;20461;-78
2023/08/18 14:05:15;;;;;;;11.27;8.20;;;;;;;;;;5023769;28;20459;-79
2023/08/18 14:07:44;;;;;;;10.17;9.13;;;;;;;;;;5022099;28;20527;-78
2023/08/18 14:10:11;;;;;;;12.33;8.63;;;;;;;;;;5023385;28;20522;-79
2023/08/18 14:12:39;;;;;;;11.63;9.53;;;;;;;;;;5026625;28;20467;-78
2023/08/18 14:15:08;;;;;;;9.40;8.40;;;;;;;;;;5025893;28;20447;-79
2023/08/18 14:17:37;;;;;;;8.30;7.50;;;;;;;;;;5023749;28;20483;-78
2023/08/18 14:20:12;;;;;;;9.93;7.83;;;;;;;;;;5022574;28;20490;-80
2023/08/18 14:22:41;;;;;;;7.93;7.13;;;;;;;;;;5020202;28;20762;-78
2023/08/18 14:25:09;;;;;;;6.80;6.10;;;;;;;;;;5012837;28;20471;-77
2023/08/18 14:27:36;;;;;;;7.50;6.80;;;;;;;;;;5018514;28;20443;-78
2023/08/18 14:30:10;;;;;;;9.27;8.47;;;;;;;;;;5022072;28;20463;-78
2023/08/18 14:32:40;;;;;;;8.20;6.43;;;;;;;;;;5023119;28;20458;-78
2023/08/18 14:35:08;;;;;;;6.57;5.90;;;;;;;;;;5020123;28;20455;-79
2023/08/18 14:37:37;;;;;;;8.00;5.83;;;;;;;;;;5022231;28;20458;-78
2023/08/18 14:40:10;;;;;;;8.00;7.20;;;;;;;;;;5022172;28;20469;-79
2023/08/18 14:42:38;;;;;;;10.07;7.67;;;;;;;;;;5021351;28;20525;-80
2023/08/18 14:45:09;;;;;;;7.77;6.20;;;;;;;;;;5020333;28;20510;-79
2023/08/18 14:47:41;;;;;;;8.53;6.63;;;;;;;;;;5020487;28;20458;-80
2023/08/18 14:50:09;;;;;;;9.10;6.70;;;;;;;;;;5017503;28;20451;-78